sensor_id;sensor_type;location;lat;lon;timestamp;P1;durP1;ratioP1;P2;durP2;ratioP2
75087;SDS011;63664;44.868;40.600;2023-05-10T00:00:05;4.90;;;3.00;;
75087;SDS011;63664;44.868;40.600;2023-05-10T00:02:39;6.55;;;3.35;;
75087;SDS011;63664;44.868;40.600;2023-05-10T00:05:08;5.65;;;2.72;;
75087;SDS011;63664;44.868;40.600;2023-05-10T00:07:34;4.22;;;2.78;;
75087;SDS011;63664;44.868;40.600;2023-05-10T00:10:03;3.30;;;2.33;;
75087;SDS011;63664;44.868;40.600;2023-05-10T00:12:30;4.85;;;3.03;;
75087;SDS011;63664;44.868;40.600;2023-05-10T00:14:56;5.82;;;3.00;;
75087;SDS011;63664;44.868;40.600;2023-05-10T00:17:24;4.90;;;2.63;;
75087;SDS011;63664;44.868;40.600;2023-05-10T00:19:53;4.97;;;3.13;;
75087;SDS011;63664;44.868;40.600;2023-05-10T00:22:19;5.47;;;2.30;;
75087;SDS011;63664;44.868;40.600;2023-05-10T00:24:46;4.78;;;2.97;;
75087;SDS011;63664;44.868;40.600;2023-05-10T00:27:15;6.18;;;3.40;;
75087;SDS011;63664;44.868;40.600;2023-05-10T00:29:44;4.78;;;3.13;;
75087;SDS011;63664;44.868;40.600;2023-05-10T00:32:10;5.43;;;3.45;;
75087;SDS011;63664;44.868;40.600;2023-05-10T00:34:36;4.30;;;2.35;;
75087;SDS011;63664;44.868;40.600;2023-05-10T00:37:05;8.52;;;3.78;;
75087;SDS011;63664;44.868;40.600;2023-05-10T00:39:34;7.00;;;3.58;;
75087;SDS011;63664;44.868;40.600;2023-05-10T00:42:04;6.18;;;2.92;;
75087;SDS011;63664;44.868;40.600;2023-05-10T00:44:33;9.75;;;3.50;;
75087;SDS011;63664;44.868;40.600;2023-05-10T00:47:04;8.82;;;4.00;;
75087;SDS011;63664;44.868;40.600;2023-05-10T00:49:34;5.55;;;3.60;;
75087;SDS011;63664;44.868;40.600;2023-05-10T00:52:02;8.30;;;3.63;;
75087;SDS011;63664;44.868;40.600;2023-05-10T00:54:29;6.47;;;3.55;;
75087;SDS011;63664;44.868;40.600;2023-05-10T00:56:58;7.53;;;3.38;;
75087;SDS011;63664;44.868;40.600;2023-05-10T00:59:29;3.67;;;2.60;;
75087;SDS011;63664;44.868;40.600;2023-05-10T01:01:55;6.68;;;3.35;;
75087;SDS011;63664;44.868;40.600;2023-05-10T01:04:22;4.45;;;2.83;;
75087;SDS011;63664;44.868;40.600;2023-05-10T01:06:51;6.13;;;3.55;;
75087;SDS011;63664;44.868;40.600;2023-05-10T01:09:19;5.03;;;3.00;;
75087;SDS011;63664;44.868;40.600;2023-05-10T01:11:49;4.97;;;2.70;;
75087;SDS011;63664;44.868;40.600;2023-05-10T01:14:18;5.07;;;2.10;;
75087;SDS011;63664;44.868;40.600;2023-05-10T01:16:50;3.85;;;2.30;;
75087;SDS011;63664;44.868;40.600;2023-05-10T01:19:25;4.47;;;2.65;;
75087;SDS011;63664;44.868;40.600;2023-05-10T01:24:53;5.00;;;2.42;;
75087;SDS011;63664;44.868;40.600;2023-05-10T01:41:18;6.18;;;3.25;;
75087;SDS011;63664;44.868;40.600;2023-05-10T01:49:25;5.68;;;2.88;;
75087;SDS011;63664;44.868;40.600;2023-05-10T01:52:00;5.75;;;2.85;;
75087;SDS011;63664;44.868;40.600;2023-05-10T01:54:34;3.90;;;2.40;;
75087;SDS011;63664;44.868;40.600;2023-05-10T01:57:05;4.75;;;2.83;;
75087;SDS011;63664;44.868;40.600;2023-05-10T02:02:04;9.57;;;3.15;;
75087;SDS011;63664;44.868;40.600;2023-05-10T02:04:39;6.47;;;3.47;;
75087;SDS011;63664;44.868;40.600;2023-05-10T02:07:13;6.85;;;3.38;;
75087;SDS011;63664;44.868;40.600;2023-05-10T02:09:40;5.32;;;3.40;;
75087;SDS011;63664;44.868;40.600;2023-05-10T02:12:13;5.00;;;3.15;;
75087;SDS011;63664;44.868;40.600;2023-05-10T02:14:44;6.43;;;3.38;;
75087;SDS011;63664;44.868;40.600;2023-05-10T02:17:12;5.05;;;2.97;;
75087;SDS011;63664;44.868;40.600;2023-05-10T02:19:40;5.78;;;3.70;;
75087;SDS011;63664;44.868;40.600;2023-05-10T02:22:08;7.13;;;3.88;;
75087;SDS011;63664;44.868;40.600;2023-05-10T02:24:36;6.97;;;4.20;;
75087;SDS011;63664;44.868;40.600;2023-05-10T02:27:05;8.40;;;4.25;;
75087;SDS011;63664;44.868;40.600;2023-05-10T02:29:34;7.95;;;4.05;;
75087;SDS011;63664;44.868;40.600;2023-05-10T02:32:02;6.95;;;4.28;;
75087;SDS011;63664;44.868;40.600;2023-05-10T02:34:29;7.63;;;3.70;;
75087;SDS011;63664;44.868;40.600;2023-05-10T02:36:56;8.43;;;4.10;;
75087;SDS011;63664;44.868;40.600;2023-05-10T02:39:25;6.55;;;3.67;;
75087;SDS011;63664;44.868;40.600;2023-05-10T02:41:56;7.45;;;4.68;;
75087;SDS011;63664;44.868;40.600;2023-05-10T02:44:24;6.18;;;3.65;;
75087;SDS011;63664;44.868;40.600;2023-05-10T02:46:56;7.97;;;3.90;;
75087;SDS011;63664;44.868;40.600;2023-05-10T02:49:25;7.97;;;4.03;;
75087;SDS011;63664;44.868;40.600;2023-05-10T02:51:55;5.75;;;3.55;;
75087;SDS011;63664;44.868;40.600;2023-05-10T02:54:30;6.78;;;3.63;;
75087;SDS011;63664;44.868;40.600;2023-05-10T02:57:00;6.50;;;3.75;;
75087;SDS011;63664;44.868;40.600;2023-05-10T02:59:28;10.30;;;3.65;;
75087;SDS011;63664;44.868;40.600;2023-05-10T03:01:55;7.20;;;3.95;;
75087;SDS011;63664;44.868;40.600;2023-05-10T03:04:24;8.35;;;4.38;;
75087;SDS011;63664;44.868;40.600;2023-05-10T03:06:54;11.60;;;4.78;;
75087;SDS011;63664;44.868;40.600;2023-05-10T03:09:23;10.90;;;5.05;;
75087;SDS011;63664;44.868;40.600;2023-05-10T03:12:03;8.68;;;3.38;;
75087;SDS011;63664;44.868;40.600;2023-05-10T03:15:00;6.95;;;3.85;;
75087;SDS011;63664;44.868;40.600;2023-05-10T03:20:18;5.28;;;3.00;;
75087;SDS011;63664;44.868;40.600;2023-05-10T03:23:28;5.55;;;2.83;;
75087;SDS011;63664;44.868;40.600;2023-05-10T03:25:58;5.40;;;3.00;;
75087;SDS011;63664;44.868;40.600;2023-05-10T03:28:26;4.88;;;3.15;;
75087;SDS011;63664;44.868;40.600;2023-05-10T03:30:53;4.47;;;3.13;;
75087;SDS011;63664;44.868;40.600;2023-05-10T03:33:21;5.95;;;3.35;;
75087;SDS011;63664;44.868;40.600;2023-05-10T03:35:55;5.22;;;3.03;;
75087;SDS011;63664;44.868;40.600;2023-05-10T03:38:26;6.57;;;3.88;;
75087;SDS011;63664;44.868;40.600;2023-05-10T03:40:53;7.70;;;4.07;;
75087;SDS011;63664;44.868;40.600;2023-05-10T03:45:57;4.57;;;2.88;;
75087;SDS011;63664;44.868;40.600;2023-05-10T03:48:25;5.60;;;2.58;;
75087;SDS011;63664;44.868;40.600;2023-05-10T03:50:54;2.90;;;2.13;;
75087;SDS011;63664;44.868;40.600;2023-05-10T03:53:20;5.38;;;2.20;;
75087;SDS011;63664;44.868;40.600;2023-05-10T03:55:50;2.78;;;1.80;;
75087;SDS011;63664;44.868;40.600;2023-05-10T03:58:19;2.88;;;1.85;;
75087;SDS011;63664;44.868;40.600;2023-05-10T04:00:45;4.05;;;2.20;;
75087;SDS011;63664;44.868;40.600;2023-05-10T04:03:16;3.65;;;2.30;;
75087;SDS011;63664;44.868;40.600;2023-05-10T04:05:45;3.45;;;2.10;;
75087;SDS011;63664;44.868;40.600;2023-05-10T04:08:16;4.65;;;2.35;;
75087;SDS011;63664;44.868;40.600;2023-05-10T04:10:42;5.25;;;3.03;;
75087;SDS011;63664;44.868;40.600;2023-05-10T04:13:11;4.45;;;2.28;;
75087;SDS011;63664;44.868;40.600;2023-05-10T04:15:40;3.75;;;2.47;;
75087;SDS011;63664;44.868;40.600;2023-05-10T04:18:11;2.92;;;2.25;;
75087;SDS011;63664;44.868;40.600;2023-05-10T04:20:37;4.50;;;2.50;;
75087;SDS011;63664;44.868;40.600;2023-05-10T04:23:03;2.92;;;2.10;;
75087;SDS011;63664;44.868;40.600;2023-05-10T04:25:33;3.08;;;2.35;;
75087;SDS011;63664;44.868;40.600;2023-05-10T04:28:03;4.25;;;2.60;;
75087;SDS011;63664;44.868;40.600;2023-05-10T04:30:34;3.17;;;2.20;;
75087;SDS011;63664;44.868;40.600;2023-05-10T04:33:05;4.85;;;3.10;;
75087;SDS011;63664;44.868;40.600;2023-05-10T04:35:32;3.13;;;2.22;;
75087;SDS011;63664;44.868;40.600;2023-05-10T04:37:59;3.70;;;2.47;;
75087;SDS011;63664;44.868;40.600;2023-05-10T04:40:30;2.78;;;2.38;;
75087;SDS011;63664;44.868;40.600;2023-05-10T06:37:47;5.25;;;1.60;;
75087;SDS011;63664;44.868;40.600;2023-05-10T06:40:14;3.13;;;1.60;;
75087;SDS011;63664;44.868;40.600;2023-05-10T06:42:40;3.30;;;1.42;;
75087;SDS011;63664;44.868;40.600;2023-05-10T06:45:10;2.40;;;1.30;;
75087;SDS011;63664;44.868;40.600;2023-05-10T06:47:36;2.20;;;1.70;;
75087;SDS011;63664;44.868;40.600;2023-05-10T06:50:03;3.10;;;1.42;;
75087;SDS011;63664;44.868;40.600;2023-05-10T06:52:29;4.28;;;1.80;;
75087;SDS011;63664;44.868;40.600;2023-05-10T06:54:58;2.17;;;1.50;;
75087;SDS011;63664;44.868;40.600;2023-05-10T06:57:24;4.78;;;2.05;;
75087;SDS011;63664;44.868;40.600;2023-05-10T06:59:53;3.75;;;1.95;;
75087;SDS011;63664;44.868;40.600;2023-05-10T07:02:24;3.80;;;2.25;;
75087;SDS011;63664;44.868;40.600;2023-05-10T07:04:52;8.10;;;1.52;;
75087;SDS011;63664;44.868;40.600;2023-05-10T07:07:22;2.92;;;1.83;;
75087;SDS011;63664;44.868;40.600;2023-05-10T07:09:51;2.97;;;1.30;;
75087;SDS011;63664;44.868;40.600;2023-05-10T07:12:17;1.48;;;1.02;;
75087;SDS011;63664;44.868;40.600;2023-05-10T07:14:46;3.40;;;1.40;;
75087;SDS011;63664;44.868;40.600;2023-05-10T07:17:14;2.33;;;1.38;;
75087;SDS011;63664;44.868;40.600;2023-05-10T07:19:40;3.58;;;1.75;;
75087;SDS011;63664;44.868;40.600;2023-05-10T07:22:07;4.57;;;1.90;;
75087;SDS011;63664;44.868;40.600;2023-05-10T07:24:33;5.32;;;2.80;;
75087;SDS011;63664;44.868;40.600;2023-05-10T07:26:59;4.25;;;2.58;;
75087;SDS011;63664;44.868;40.600;2023-05-10T07:29:26;5.53;;;2.80;;
75087;SDS011;63664;44.868;40.600;2023-05-10T07:31:55;4.70;;;2.53;;
75087;SDS011;63664;44.868;40.600;2023-05-10T07:34:21;4.57;;;2.63;;
75087;SDS011;63664;44.868;40.600;2023-05-10T07:36:48;4.05;;;2.22;;
75087;SDS011;63664;44.868;40.600;2023-05-10T07:39:17;3.67;;;2.00;;
75087;SDS011;63664;44.868;40.600;2023-05-10T07:41:43;4.28;;;1.85;;
75087;SDS011;63664;44.868;40.600;2023-05-10T07:44:09;2.80;;;1.90;;
75087;SDS011;63664;44.868;40.600;2023-05-10T07:46:40;2.55;;;1.40;;
75087;SDS011;63664;44.868;40.600;2023-05-10T07:49:08;1.75;;;1.13;;
75087;SDS011;63664;44.868;40.600;2023-05-10T07:51:35;3.47;;;1.70;;
75087;SDS011;63664;44.868;40.600;2023-05-10T07:54:04;2.47;;;1.35;;
75087;SDS011;63664;44.868;40.600;2023-05-10T07:56:32;3.47;;;1.70;;
75087;SDS011;63664;44.868;40.600;2023-05-10T07:59:00;3.63;;;1.90;;
75087;SDS011;63664;44.868;40.600;2023-05-10T08:01:31;1.92;;;1.30;;
75087;SDS011;63664;44.868;40.600;2023-05-10T08:04:00;2.17;;;1.40;;
75087;SDS011;63664;44.868;40.600;2023-05-10T08:06:29;3.03;;;1.73;;
75087;SDS011;63664;44.868;40.600;2023-05-10T08:08:58;1.55;;;1.15;;
75087;SDS011;63664;44.868;40.600;2023-05-10T08:11:24;1.63;;;1.10;;
75087;SDS011;63664;44.868;40.600;2023-05-10T08:13:51;2.53;;;1.50;;
75087;SDS011;63664;44.868;40.600;2023-05-10T08:16:18;3.10;;;1.77;;
75087;SDS011;63664;44.868;40.600;2023-05-10T08:18:50;2.35;;;1.55;;
75087;SDS011;63664;44.868;40.600;2023-05-10T08:21:16;3.58;;;2.10;;
75087;SDS011;63664;44.868;40.600;2023-05-10T08:23:43;3.85;;;2.80;;
75087;SDS011;63664;44.868;40.600;2023-05-10T08:26:12;2.53;;;1.80;;
75087;SDS011;63664;44.868;40.600;2023-05-10T08:28:40;1.52;;;1.40;;
75087;SDS011;63664;44.868;40.600;2023-05-10T08:31:09;1.55;;;1.20;;
75087;SDS011;63664;44.868;40.600;2023-05-10T08:33:38;2.35;;;1.63;;
75087;SDS011;63664;44.868;40.600;2023-05-10T08:36:04;2.53;;;1.60;;
75087;SDS011;63664;44.868;40.600;2023-05-10T08:38:31;4.38;;;1.88;;
75087;SDS011;63664;44.868;40.600;2023-05-10T08:40:58;1.80;;;1.30;;
75087;SDS011;63664;44.868;40.600;2023-05-10T08:43:27;3.80;;;1.60;;
75087;SDS011;63664;44.868;40.600;2023-05-10T08:45:54;2.60;;;1.80;;
75087;SDS011;63664;44.868;40.600;2023-05-10T08:50:52;1.08;;;0.82;;
75087;SDS011;63664;44.868;40.600;2023-05-10T08:53:20;1.67;;;1.27;;
75087;SDS011;63664;44.868;40.600;2023-05-10T08:58:19;1.88;;;1.10;;
75087;SDS011;63664;44.868;40.600;2023-05-10T09:00:51;2.42;;;1.02;;
75087;SDS011;63664;44.868;40.600;2023-05-10T09:03:18;3.30;;;1.40;;
75087;SDS011;63664;44.868;40.600;2023-05-10T09:05:44;3.15;;;0.82;;
75087;SDS011;63664;44.868;40.600;2023-05-10T09:08:11;1.20;;;0.90;;
75087;SDS011;63664;44.868;40.600;2023-05-10T09:10:43;2.00;;;1.20;;
75087;SDS011;63664;44.868;40.600;2023-05-10T09:13:13;1.65;;;1.15;;
75087;SDS011;63664;44.868;40.600;2023-05-10T09:15:43;2.60;;;1.30;;
75087;SDS011;63664;44.868;40.600;2023-05-10T09:18:11;2.35;;;1.30;;
75087;SDS011;63664;44.868;40.600;2023-05-10T09:20:42;1.88;;;1.17;;
75087;SDS011;63664;44.868;40.600;2023-05-10T09:23:08;2.22;;;1.50;;
75087;SDS011;63664;44.868;40.600;2023-05-10T09:25:37;3.28;;;1.92;;
75087;SDS011;63664;44.868;40.600;2023-05-10T09:28:07;1.75;;;1.25;;
75087;SDS011;63664;44.868;40.600;2023-05-10T09:30:35;1.92;;;1.02;;
75087;SDS011;63664;44.868;40.600;2023-05-10T09:33:04;1.60;;;1.02;;
75087;SDS011;63664;44.868;40.600;2023-05-10T09:35:31;2.28;;;1.20;;
75087;SDS011;63664;44.868;40.600;2023-05-10T09:38:03;1.88;;;1.40;;
75087;SDS011;63664;44.868;40.600;2023-05-10T09:40:31;2.28;;;1.30;;
75087;SDS011;63664;44.868;40.600;2023-05-10T09:43:05;2.10;;;1.27;;
75087;SDS011;63664;44.868;40.600;2023-05-10T09:45:33;2.58;;;1.40;;
75087;SDS011;63664;44.868;40.600;2023-05-10T09:48:07;3.10;;;1.38;;
75087;SDS011;63664;44.868;40.600;2023-05-10T09:50:38;1.63;;;1.02;;
75087;SDS011;63664;44.868;40.600;2023-05-10T09:53:06;2.95;;;1.05;;
75087;SDS011;63664;44.868;40.600;2023-05-10T09:55:46;1.92;;;1.10;;
75087;SDS011;63664;44.868;40.600;2023-05-10T09:58:15;1.73;;;1.00;;
75087;SDS011;63664;44.868;40.600;2023-05-10T10:00:44;4.22;;;1.25;;
75087;SDS011;63664;44.868;40.600;2023-05-10T10:03:17;1.55;;;1.20;;
75087;SDS011;63664;44.868;40.600;2023-05-10T10:05:46;1.65;;;0.98;;
75087;SDS011;63664;44.868;40.600;2023-05-10T10:08:15;3.75;;;1.10;;
75087;SDS011;63664;44.868;40.600;2023-05-10T10:10:42;1.42;;;1.00;;
75087;SDS011;63664;44.868;40.600;2023-05-10T10:13:17;1.60;;;1.13;;
75087;SDS011;63664;44.868;40.600;2023-05-10T10:15:46;2.08;;;1.20;;
75087;SDS011;63664;44.868;40.600;2023-05-10T10:18:18;1.42;;;1.10;;
75087;SDS011;63664;44.868;40.600;2023-05-10T10:20:55;1.67;;;1.13;;
75087;SDS011;63664;44.868;40.600;2023-05-10T10:23:22;2.80;;;1.10;;
75087;SDS011;63664;44.868;40.600;2023-05-10T10:25:50;1.38;;;1.10;;
75087;SDS011;63664;44.868;40.600;2023-05-10T10:28:35;2.42;;;1.20;;
75087;SDS011;63664;44.868;40.600;2023-05-10T10:34:27;1.27;;;0.90;;
75087;SDS011;63664;44.868;40.600;2023-05-10T10:37:03;0.98;;;0.73;;
75087;SDS011;63664;44.868;40.600;2023-05-10T10:39:34;4.18;;;0.93;;
75087;SDS011;63664;44.868;40.600;2023-05-10T10:42:02;1.35;;;0.93;;
75087;SDS011;63664;44.868;40.600;2023-05-10T10:49:42;2.25;;;0.80;;
75087;SDS011;63664;44.868;40.600;2023-05-10T10:52:30;1.20;;;0.75;;
75087;SDS011;63664;44.868;40.600;2023-05-10T11:03:03;1.02;;;0.70;;
75087;SDS011;63664;44.868;40.600;2023-05-10T11:08:11;1.83;;;0.95;;
75087;SDS011;63664;44.868;40.600;2023-05-10T11:13:28;1.98;;;1.40;;
75087;SDS011;63664;44.868;40.600;2023-05-10T11:15:56;1.75;;;1.23;;
75087;SDS011;63664;44.868;40.600;2023-05-10T11:18:25;1.42;;;1.10;;
75087;SDS011;63664;44.868;40.600;2023-05-10T11:20:56;0.90;;;0.80;;
75087;SDS011;63664;44.868;40.600;2023-05-10T11:26:09;10.27;;;1.52;;
75087;SDS011;63664;44.868;40.600;2023-05-10T11:28:43;2.08;;;1.58;;
75087;SDS011;63664;44.868;40.600;2023-05-10T11:31:10;1.52;;;1.13;;
75087;SDS011;63664;44.868;40.600;2023-05-10T11:33:43;2.45;;;1.75;;
75087;SDS011;63664;44.868;40.600;2023-05-10T11:36:14;1.70;;;1.25;;
75087;SDS011;63664;44.868;40.600;2023-05-10T11:38:43;2.38;;;1.48;;
75087;SDS011;63664;44.868;40.600;2023-05-10T11:41:09;2.78;;;1.25;;
75087;SDS011;63664;44.868;40.600;2023-05-10T11:43:40;2.08;;;1.10;;
75087;SDS011;63664;44.868;40.600;2023-05-10T11:48:41;1.20;;;1.02;;
75087;SDS011;63664;44.868;40.600;2023-05-10T11:51:08;1.30;;;0.98;;
75087;SDS011;63664;44.868;40.600;2023-05-10T11:53:39;1.85;;;1.10;;
75087;SDS011;63664;44.868;40.600;2023-05-10T11:56:08;1.23;;;1.08;;
75087;SDS011;63664;44.868;40.600;2023-05-10T11:58:36;1.30;;;0.90;;
75087;SDS011;63664;44.868;40.600;2023-05-10T12:01:06;1.38;;;0.75;;
75087;SDS011;63664;44.868;40.600;2023-05-10T12:03:34;0.80;;;0.63;;
75087;SDS011;63664;44.868;40.600;2023-05-10T12:06:04;1.17;;;0.68;;
75087;SDS011;63664;44.868;40.600;2023-05-10T12:08:33;1.17;;;0.70;;
75087;SDS011;63664;44.868;40.600;2023-05-10T12:11:08;4.57;;;0.88;;
75087;SDS011;63664;44.868;40.600;2023-05-10T12:13:43;0.90;;;0.70;;
75087;SDS011;63664;44.868;40.600;2023-05-10T12:16:19;0.77;;;0.57;;
75087;SDS011;63664;44.868;40.600;2023-05-10T12:18:55;0.82;;;0.70;;
75087;SDS011;63664;44.868;40.600;2023-05-10T12:21:26;1.15;;;0.93;;
75087;SDS011;63664;44.868;40.600;2023-05-10T12:23:59;1.35;;;1.02;;
75087;SDS011;63664;44.868;40.600;2023-05-10T12:26:30;1.35;;;1.10;;
75087;SDS011;63664;44.868;40.600;2023-05-10T12:52:04;1.88;;;1.20;;
75087;SDS011;63664;44.868;40.600;2023-05-10T12:54:31;1.40;;;1.08;;
75087;SDS011;63664;44.868;40.600;2023-05-10T12:56:59;1.42;;;1.23;;
75087;SDS011;63664;44.868;40.600;2023-05-10T12:59:25;1.33;;;1.10;;
75087;SDS011;63664;44.868;40.600;2023-05-10T13:01:51;1.88;;;1.30;;
75087;SDS011;63664;44.868;40.600;2023-05-10T13:04:21;2.72;;;1.15;;
75087;SDS011;63664;44.868;40.600;2023-05-10T13:06:47;0.98;;;0.82;;
75087;SDS011;63664;44.868;40.600;2023-05-10T13:09:23;3.28;;;2.08;;
75087;SDS011;63664;44.868;40.600;2023-05-10T13:11:54;6.32;;;2.55;;
75087;SDS011;63664;44.868;40.600;2023-05-10T13:14:21;2.78;;;1.80;;
75087;SDS011;63664;44.868;40.600;2023-05-10T13:16:52;2.42;;;1.67;;
75087;SDS011;63664;44.868;40.600;2023-05-10T13:19:19;2.95;;;1.60;;
75087;SDS011;63664;44.868;40.600;2023-05-10T13:21:51;5.90;;;1.77;;
75087;SDS011;63664;44.868;40.600;2023-05-10T13:24:17;3.55;;;1.33;;
75087;SDS011;63664;44.868;40.600;2023-05-10T13:26:45;1.85;;;1.40;;
75087;SDS011;63664;44.868;40.600;2023-05-10T13:29:12;1.60;;;1.38;;
75087;SDS011;63664;44.868;40.600;2023-05-10T13:31:38;3.88;;;1.60;;
75087;SDS011;63664;44.868;40.600;2023-05-10T13:34:04;4.47;;;1.50;;
75087;SDS011;63664;44.868;40.600;2023-05-10T13:36:31;2.13;;;1.48;;
75087;SDS011;63664;44.868;40.600;2023-05-10T13:39:00;2.38;;;1.45;;
75087;SDS011;63664;44.868;40.600;2023-05-10T13:41:29;2.58;;;1.45;;
75087;SDS011;63664;44.868;40.600;2023-05-10T14:34:45;3.22;;;1.70;;
75087;SDS011;63664;44.868;40.600;2023-05-10T14:37:12;1.98;;;1.30;;
75087;SDS011;63664;44.868;40.600;2023-05-10T14:39:42;3.47;;;1.63;;
75087;SDS011;63664;44.868;40.600;2023-05-10T14:42:08;3.00;;;1.70;;
75087;SDS011;63664;44.868;40.600;2023-05-10T14:44:40;2.42;;;1.85;;
75087;SDS011;63664;44.868;40.600;2023-05-10T14:47:06;3.65;;;1.88;;
75087;SDS011;63664;44.868;40.600;2023-05-10T14:49:34;3.22;;;1.30;;
75087;SDS011;63664;44.868;40.600;2023-05-10T14:52:03;2.55;;;1.70;;
75087;SDS011;63664;44.868;40.600;2023-05-10T14:54:33;2.78;;;1.92;;
75087;SDS011;63664;44.868;40.600;2023-05-10T14:57:04;3.20;;;2.20;;
75087;SDS011;63664;44.868;40.600;2023-05-10T14:59:32;3.67;;;2.22;;
75087;SDS011;63664;44.868;40.600;2023-05-10T15:02:01;3.45;;;2.03;;
75087;SDS011;63664;44.868;40.600;2023-05-10T15:04:28;3.78;;;2.35;;
75087;SDS011;63664;44.868;40.600;2023-05-10T15:06:58;3.58;;;2.55;;
75087;SDS011;63664;44.868;40.600;2023-05-10T15:09:25;4.05;;;2.55;;
75087;SDS011;63664;44.868;40.600;2023-05-10T15:11:53;4.15;;;2.33;;
75087;SDS011;63664;44.868;40.600;2023-05-10T15:14:20;5.75;;;1.80;;
75087;SDS011;63664;44.868;40.600;2023-05-10T15:16:47;3.97;;;2.45;;
75087;SDS011;63664;44.868;40.600;2023-05-10T15:19:16;5.47;;;2.55;;
75087;SDS011;63664;44.868;40.600;2023-05-10T15:21:42;2.75;;;1.65;;
75087;SDS011;63664;44.868;40.600;2023-05-10T15:24:13;3.50;;;2.28;;
75087;SDS011;63664;44.868;40.600;2023-05-10T15:26:40;2.95;;;1.92;;
75087;SDS011;63664;44.868;40.600;2023-05-10T15:37:04;12.02;;;7.57;;
75087;SDS011;63664;44.868;40.600;2023-05-10T15:39:33;7.90;;;5.03;;
75087;SDS011;63664;44.868;40.600;2023-05-10T15:42:00;4.95;;;3.08;;
75087;SDS011;63664;44.868;40.600;2023-05-10T15:44:27;4.50;;;2.20;;
75087;SDS011;63664;44.868;40.600;2023-05-10T15:46:55;5.72;;;2.65;;
75087;SDS011;63664;44.868;40.600;2023-05-10T15:49:24;3.05;;;1.58;;
75087;SDS011;63664;44.868;40.600;2023-05-10T15:51:51;2.72;;;1.83;;
75087;SDS011;63664;44.868;40.600;2023-05-10T15:54:19;2.08;;;1.38;;
75087;SDS011;63664;44.868;40.600;2023-05-10T15:56:46;2.88;;;1.85;;
75087;SDS011;63664;44.868;40.600;2023-05-10T15:59:12;2.53;;;1.50;;
75087;SDS011;63664;44.868;40.600;2023-05-10T16:01:38;3.22;;;1.65;;
75087;SDS011;63664;44.868;40.600;2023-05-10T16:04:07;3.95;;;1.70;;
75087;SDS011;63664;44.868;40.600;2023-05-10T16:06:39;2.42;;;1.13;;
75087;SDS011;63664;44.868;40.600;2023-05-10T16:09:05;3.08;;;1.48;;
75087;SDS011;63664;44.868;40.600;2023-05-10T16:11:32;2.45;;;1.33;;
75087;SDS011;63664;44.868;40.600;2023-05-10T16:14:01;1.52;;;1.20;;
75087;SDS011;63664;44.868;40.600;2023-05-10T16:16:33;2.28;;;1.50;;
75087;SDS011;63664;44.868;40.600;2023-05-10T16:19:01;2.63;;;1.25;;
75087;SDS011;63664;44.868;40.600;2023-05-10T16:21:31;1.98;;;1.35;;
75087;SDS011;63664;44.868;40.600;2023-05-10T16:24:01;1.85;;;1.40;;
75087;SDS011;63664;44.868;40.600;2023-05-10T16:26:28;3.75;;;1.60;;
75087;SDS011;63664;44.868;40.600;2023-05-10T16:28:56;2.45;;;1.42;;
75087;SDS011;63664;44.868;40.600;2023-05-10T16:31:25;3.20;;;1.83;;
75087;SDS011;63664;44.868;40.600;2023-05-10T16:33:51;1.55;;;1.23;;
75087;SDS011;63664;44.868;40.600;2023-05-10T16:36:18;2.22;;;1.33;;
75087;SDS011;63664;44.868;40.600;2023-05-10T16:38:46;3.28;;;2.00;;
75087;SDS011;63664;44.868;40.600;2023-05-10T16:41:13;3.40;;;1.60;;
75087;SDS011;63664;44.868;40.600;2023-05-10T16:43:39;2.78;;;1.85;;
75087;SDS011;63664;44.868;40.600;2023-05-10T16:46:09;2.15;;;1.77;;
75087;SDS011;63664;44.868;40.600;2023-05-10T16:48:41;2.28;;;1.48;;
75087;SDS011;63664;44.868;40.600;2023-05-10T16:51:10;3.53;;;1.52;;
75087;SDS011;63664;44.868;40.600;2023-05-10T16:53:38;3.90;;;1.50;;
75087;SDS011;63664;44.868;40.600;2023-05-10T16:56:08;1.98;;;1.42;;
75087;SDS011;63664;44.868;40.600;2023-05-10T16:58:34;2.85;;;1.45;;
75087;SDS011;63664;44.868;40.600;2023-05-10T17:01:03;3.60;;;1.45;;
75087;SDS011;63664;44.868;40.600;2023-05-10T17:03:30;3.83;;;1.52;;
75087;SDS011;63664;44.868;40.600;2023-05-10T17:05:56;2.03;;;1.58;;
75087;SDS011;63664;44.868;40.600;2023-05-10T17:08:26;2.92;;;1.90;;
75087;SDS011;63664;44.868;40.600;2023-05-10T17:10:55;2.95;;;1.70;;
75087;SDS011;63664;44.868;40.600;2023-05-10T17:13:21;2.35;;;1.67;;
75087;SDS011;63664;44.868;40.600;2023-05-10T17:15:49;4.18;;;2.10;;
75087;SDS011;63664;44.868;40.600;2023-05-10T17:18:16;3.10;;;2.00;;
75087;SDS011;63664;44.868;40.600;2023-05-10T17:20:43;3.15;;;1.90;;
75087;SDS011;63664;44.868;40.600;2023-05-10T17:23:09;4.85;;;2.00;;
75087;SDS011;63664;44.868;40.600;2023-05-10T17:25:38;2.55;;;1.73;;
75087;SDS011;63664;44.868;40.600;2023-05-10T17:28:09;2.40;;;1.75;;
75087;SDS011;63664;44.868;40.600;2023-05-10T17:30:35;4.35;;;2.05;;
75087;SDS011;63664;44.868;40.600;2023-05-10T17:33:04;4.20;;;1.63;;
75087;SDS011;63664;44.868;40.600;2023-05-10T17:35:30;2.88;;;1.90;;
75087;SDS011;63664;44.868;40.600;2023-05-10T17:37:59;2.92;;;1.77;;
75087;SDS011;63664;44.868;40.600;2023-05-10T17:40:25;2.42;;;1.60;;
75087;SDS011;63664;44.868;40.600;2023-05-10T17:42:52;3.13;;;1.90;;
75087;SDS011;63664;44.868;40.600;2023-05-10T17:45:20;4.22;;;1.92;;
75087;SDS011;63664;44.868;40.600;2023-05-10T17:47:50;2.22;;;1.55;;
75087;SDS011;63664;44.868;40.600;2023-05-10T17:50:21;3.75;;;1.45;;
75087;SDS011;63664;44.868;40.600;2023-05-10T17:52:50;1.90;;;1.30;;
75087;SDS011;63664;44.868;40.600;2023-05-10T17:55:19;2.90;;;1.90;;
75087;SDS011;63664;44.868;40.600;2023-05-10T17:57:48;4.63;;;1.58;;
75087;SDS011;63664;44.868;40.600;2023-05-10T18:00:17;4.97;;;1.77;;
75087;SDS011;63664;44.868;40.600;2023-05-10T18:02:44;4.20;;;2.00;;
75087;SDS011;63664;44.868;40.600;2023-05-10T18:05:10;3.72;;;2.13;;
75087;SDS011;63664;44.868;40.600;2023-05-10T18:07:38;4.10;;;2.67;;
75087;SDS011;63664;44.868;40.600;2023-05-10T18:10:05;4.40;;;2.40;;
75087;SDS011;63664;44.868;40.600;2023-05-10T18:12:36;5.93;;;3.28;;
75087;SDS011;63664;44.868;40.600;2023-05-10T18:15:02;4.25;;;2.40;;
75087;SDS011;63664;44.868;40.600;2023-05-10T18:17:29;5.95;;;2.28;;
75087;SDS011;63664;44.868;40.600;2023-05-10T18:19:55;8.93;;;2.30;;
75087;SDS011;63664;44.868;40.600;2023-05-10T18:22:24;3.58;;;2.05;;
75087;SDS011;63664;44.868;40.600;2023-05-10T18:24:53;2.85;;;2.20;;
75087;SDS011;63664;44.868;40.600;2023-05-10T18:27:20;3.67;;;2.22;;
75087;SDS011;63664;44.868;40.600;2023-05-10T18:29:48;3.22;;;1.90;;
75087;SDS011;63664;44.868;40.600;2023-05-10T18:32:17;4.18;;;2.28;;
75087;SDS011;63664;44.868;40.600;2023-05-10T18:34:48;3.80;;;2.50;;
75087;SDS011;63664;44.868;40.600;2023-05-10T18:37:14;5.13;;;2.45;;
75087;SDS011;63664;44.868;40.600;2023-05-10T18:39:48;2.95;;;2.20;;
75087;SDS011;63664;44.868;40.600;2023-05-10T18:42:17;3.72;;;2.30;;
75087;SDS011;63664;44.868;40.600;2023-05-10T18:44:47;4.40;;;2.60;;
75087;SDS011;63664;44.868;40.600;2023-05-10T18:47:17;4.10;;;2.45;;
75087;SDS011;63664;44.868;40.600;2023-05-10T18:49:44;6.03;;;2.85;;
75087;SDS011;63664;44.868;40.600;2023-05-10T18:52:10;3.30;;;2.20;;
75087;SDS011;63664;44.868;40.600;2023-05-10T18:54:37;5.10;;;2.20;;
75087;SDS011;63664;44.868;40.600;2023-05-10T18:57:07;4.90;;;3.25;;
75087;SDS011;63664;44.868;40.600;2023-05-10T18:59:36;3.92;;;2.38;;
75087;SDS011;63664;44.868;40.600;2023-05-10T19:02:03;2.85;;;2.17;;